createdAt,value
2023-01-07T00:00:38.470Z,2.50
2023-01-07T00:01:38.397Z,3.40
2023-01-07T00:02:38.449Z,3.80
2023-01-07T00:03:38.387Z,2.90
2023-01-07T00:04:38.380Z,4.00
2023-01-07T00:05:38.338Z,3.70
2023-01-07T00:06:38.373Z,2.30
2023-01-07T00:07:38.314Z,2.60
2023-01-07T00:08:38.320Z,2.70
2023-01-07T00:09:38.313Z,2.40
2023-01-07T00:10:38.297Z,3.10
2023-01-07T00:11:38.272Z,2.10
2023-01-07T00:12:38.262Z,3.30
2023-01-07T00:13:38.232Z,3.10
2023-01-07T00:14:38.249Z,3.20
2023-01-07T00:15:38.238Z,4.00
2023-01-07T00:16:38.216Z,2.10
2023-01-07T00:17:38.176Z,2.40
2023-01-07T00:18:38.180Z,1.30
2023-01-07T00:19:38.144Z,2.90
2023-01-07T00:20:38.187Z,2.10
2023-01-07T00:21:38.113Z,3.00
2023-01-07T00:22:38.168Z,1.50
2023-01-07T00:23:38.096Z,2.30
2023-01-07T00:24:38.125Z,1.90
2023-01-07T00:25:38.060Z,2.40
2023-01-07T00:26:38.111Z,2.00
2023-01-07T00:27:38.047Z,2.50
2023-01-07T00:28:38.058Z,1.90
2023-01-07T00:29:38.039Z,1.80
2023-01-07T00:30:37.991Z,2.10
2023-01-07T00:31:38.073Z,1.60
2023-01-07T00:32:37.975Z,3.40
2023-01-07T00:33:37.993Z,2.10
2023-01-07T00:34:37.951Z,2.20
2023-01-07T00:35:37.955Z,1.80
2023-01-07T00:36:37.955Z,1.80
2023-01-07T00:37:37.927Z,2.10
2023-01-07T00:38:37.885Z,1.60
2023-01-07T00:39:37.899Z,2.40
2023-01-07T00:40:37.870Z,1.90
2023-01-07T00:41:37.916Z,1.60
2023-01-07T00:42:37.841Z,1.60
2023-01-07T00:43:37.857Z,2.60
2023-01-07T00:44:38.083Z,1.30
2023-01-07T00:45:37.833Z,1.40
2023-01-07T00:46:37.796Z,1.80
2023-01-07T00:47:37.828Z,1.90
2023-01-07T00:48:37.774Z,2.20
2023-01-07T00:49:37.777Z,6.00
2023-01-07T00:50:37.729Z,8.50
2023-01-07T00:51:37.733Z,12.80
2023-01-07T00:52:37.743Z,14.60
2023-01-07T00:53:37.730Z,20.50
2023-01-07T00:54:37.688Z,20.00
2023-01-07T00:55:37.692Z,8.10
2023-01-07T00:56:37.656Z,3.40
2023-01-07T00:57:37.748Z,3.40
2023-01-07T00:58:37.643Z,3.10
2023-01-07T00:59:37.653Z,2.50
2023-01-07T01:00:37.620Z,2.60
2023-01-07T01:01:37.717Z,2.00
2023-01-07T01:02:37.618Z,1.90
2023-01-07T01:03:37.583Z,2.40
2023-01-07T01:04:37.591Z,2.00
2023-01-07T01:05:37.572Z,1.70
2023-01-07T01:06:37.539Z,3.00
2023-01-07T01:07:37.541Z,2.00
2023-01-07T01:08:37.524Z,2.60
2023-01-07T01:09:37.535Z,1.00
2023-01-07T01:10:37.466Z,2.00
2023-01-07T01:11:37.505Z,1.50
2023-01-07T01:12:37.446Z,1.20
2023-01-07T01:13:37.470Z,2.30
2023-01-07T01:14:37.418Z,1.80
2023-01-07T01:15:37.461Z,2.20
2023-01-07T01:16:37.456Z,2.50
2023-01-07T01:17:37.411Z,1.90
2023-01-07T01:18:37.369Z,3.10
2023-01-07T01:19:37.372Z,1.20
2023-01-07T01:20:37.364Z,2.00
2023-01-07T01:21:37.342Z,2.50
2023-01-07T01:22:37.309Z,2.40
2023-01-07T01:23:37.318Z,1.80
2023-01-07T01:24:37.313Z,1.90
2023-01-07T01:25:37.299Z,2.10
2023-01-07T01:26:37.284Z,1.70
2023-01-07T01:27:37.281Z,2.10
2023-01-07T01:28:37.219Z,2.20
2023-01-07T01:29:37.278Z,3.40
2023-01-07T01:30:37.205Z,2.60
2023-01-07T01:31:37.274Z,2.00
2023-01-07T01:32:37.176Z,1.70
2023-01-07T01:33:37.213Z,2.00
2023-01-07T01:34:37.203Z,4.70
2023-01-07T01:35:37.165Z,1.90
2023-01-07T01:36:37.151Z,3.30
2023-01-07T01:37:37.220Z,4.80
2023-01-07T01:38:37.111Z,2.90
2023-01-07T01:39:38.063Z,3.10
2023-01-07T01:40:37.067Z,3.30
2023-01-07T01:41:37.108Z,3.40
2023-01-07T01:42:37.048Z,3.80
2023-01-07T01:43:37.058Z,4.30
2023-01-07T01:44:37.075Z,2.80
2023-01-07T01:45:37.051Z,3.60
2023-01-07T01:46:37.047Z,3.10
2023-01-07T01:47:37.025Z,3.60
2023-01-07T01:48:36.966Z,3.60
2023-01-07T01:49:36.985Z,4.00
2023-01-07T01:50:36.945Z,3.80
2023-01-07T01:51:36.952Z,3.20
2023-01-07T01:52:36.918Z,3.60
2023-01-07T01:53:36.965Z,5.30
2023-01-07T01:54:36.934Z,4.40
2023-01-07T01:55:36.894Z,5.10
2023-01-07T01:56:36.853Z,3.50
2023-01-07T01:57:36.877Z,3.70
2023-01-07T01:58:36.865Z,4.90
2023-01-07T01:59:36.848Z,4.20
2023-01-07T02:00:36.871Z,3.40
2023-01-07T02:01:37.154Z,3.70
2023-01-07T02:02:36.853Z,2.70
2023-01-07T02:03:36.819Z,3.50
2023-01-07T02:04:36.782Z,4.10
2023-01-07T02:05:38.165Z,3.00
2023-01-07T02:06:36.727Z,3.00
2023-01-07T02:07:36.740Z,3.00
2023-01-07T02:08:36.706Z,2.70
2023-01-07T02:09:36.713Z,4.10
2023-01-07T02:10:36.695Z,4.30
2023-01-07T02:11:36.707Z,4.20
2023-01-07T02:12:36.676Z,3.30
2023-01-07T02:13:36.668Z,3.10
2023-01-07T02:14:36.628Z,4.80
2023-01-07T02:15:36.661Z,3.50
2023-01-07T02:16:36.643Z,3.00
2023-01-07T02:17:36.600Z,4.60
2023-01-07T02:18:36.561Z,2.60
2023-01-07T02:19:36.582Z,2.50
2023-01-07T02:20:36.569Z,2.70
2023-01-07T02:21:36.564Z,3.20
2023-01-07T02:22:36.525Z,3.40
2023-01-07T02:23:36.538Z,2.40
2023-01-07T02:24:36.489Z,2.30
2023-01-07T02:25:36.506Z,2.30
2023-01-07T02:26:36.493Z,2.00
2023-01-07T02:27:36.476Z,3.50
2023-01-07T02:28:36.429Z,2.40
2023-01-07T02:29:36.447Z,2.50
2023-01-07T02:30:36.414Z,2.80
2023-01-07T02:31:36.514Z,3.80
2023-01-07T02:32:36.390Z,2.90
2023-01-07T02:33:36.420Z,2.80
2023-01-07T02:34:36.359Z,3.20
2023-01-07T02:35:36.390Z,2.50
2023-01-07T02:36:36.332Z,2.50
2023-01-07T02:37:36.359Z,3.50
2023-01-07T02:38:36.331Z,2.60
2023-01-07T02:39:36.317Z,2.40
2023-01-07T02:40:36.311Z,3.10
2023-01-07T02:41:36.284Z,3.00
2023-01-07T02:42:36.242Z,2.90
2023-01-07T02:43:36.289Z,3.50
2023-01-07T02:44:36.229Z,2.20
2023-01-07T02:45:36.306Z,2.50
2023-01-07T02:46:36.219Z,2.50
2023-01-07T02:47:36.220Z,4.90
2023-01-07T02:48:36.182Z,4.00
2023-01-07T02:49:36.191Z,3.40
2023-01-07T02:50:36.170Z,2.70
2023-01-07T02:51:36.192Z,2.10
2023-01-07T02:52:36.141Z,3.90
2023-01-07T02:53:36.145Z,2.00
2023-01-07T02:54:36.128Z,2.30
2023-01-07T02:55:36.127Z,2.60
2023-01-07T02:56:36.093Z,3.90
2023-01-07T02:57:36.095Z,4.20
2023-01-07T02:58:36.042Z,2.30
2023-01-07T02:59:36.103Z,2.90
2023-01-07T03:00:36.085Z,2.70
2023-01-07T03:01:36.222Z,3.30
2023-01-07T03:02:35.999Z,2.10
2023-01-07T03:03:36.004Z,2.20
2023-01-07T03:04:35.989Z,3.30
2023-01-07T03:05:35.982Z,2.50
2023-01-07T03:06:35.946Z,2.80
2023-01-07T03:07:35.985Z,2.00
2023-01-07T03:08:35.925Z,2.10
2023-01-07T03:09:35.923Z,2.90
2023-01-07T03:10:35.945Z,4.10
2023-01-07T03:11:35.894Z,2.60
2023-01-07T03:12:35.879Z,3.10
2023-01-07T03:13:35.894Z,2.80
2023-01-07T03:14:35.834Z,2.40
2023-01-07T03:15:35.869Z,2.30
2023-01-07T03:16:35.836Z,3.00
2023-01-07T03:17:35.858Z,3.50
2023-01-07T03:18:35.784Z,2.20
2023-01-07T03:19:35.790Z,2.90
2023-01-07T03:20:35.788Z,3.10
2023-01-07T03:21:35.770Z,2.80
2023-01-07T03:22:35.763Z,2.40
2023-01-07T03:23:35.761Z,2.10
2023-01-07T03:24:35.709Z,2.20
2023-01-07T03:25:35.727Z,2.30
2023-01-07T03:26:35.711Z,2.20
2023-01-07T03:27:35.705Z,2.80
2023-01-07T03:28:35.692Z,2.50
2023-01-07T03:29:35.687Z,3.00
2023-01-07T03:30:35.625Z,3.00
2023-01-07T03:31:35.676Z,2.80
2023-01-07T03:32:35.595Z,2.50
2023-01-07T03:33:35.606Z,2.80
2023-01-07T03:34:35.597Z,3.30
2023-01-07T03:35:35.578Z,2.20
2023-01-07T03:36:35.535Z,2.80
2023-01-07T03:37:35.566Z,2.50
2023-01-07T03:38:35.530Z,2.10
2023-01-07T03:39:35.532Z,4.00
2023-01-07T03:40:35.531Z,3.20
2023-01-07T03:41:35.508Z,1.90
2023-01-07T03:42:35.468Z,4.40
2023-01-07T03:43:35.528Z,1.80
2023-01-07T03:44:35.432Z,3.30
2023-01-07T03:45:35.486Z,2.10
2023-01-07T03:46:35.404Z,2.50
2023-01-07T03:47:35.413Z,1.70
2023-01-07T03:48:35.411Z,2.30
2023-01-07T03:49:35.409Z,2.10
2023-01-07T03:50:35.368Z,1.60
2023-01-07T03:51:35.363Z,2.40
2023-01-07T03:52:35.326Z,2.60
2023-01-07T03:53:35.354Z,2.20
2023-01-07T03:54:35.313Z,3.00
2023-01-07T03:55:35.322Z,2.00
2023-01-07T03:56:35.286Z,2.20
2023-01-07T03:57:35.278Z,1.50
2023-01-07T03:58:35.278Z,2.20
2023-01-07T03:59:35.288Z,2.10
2023-01-07T04:00:35.256Z,2.70
2023-01-07T04:01:35.330Z,2.10
2023-01-07T04:02:35.214Z,3.00
2023-01-07T04:03:35.215Z,2.60
2023-01-07T04:04:35.302Z,2.80
2023-01-07T04:05:35.222Z,2.10
2023-01-07T04:06:35.158Z,2.30
2023-01-07T04:07:35.160Z,2.70
2023-01-07T04:08:35.124Z,2.60
2023-01-07T04:09:35.137Z,1.50
2023-01-07T04:10:35.100Z,2.20
2023-01-07T04:11:35.125Z,1.60
2023-01-07T04:12:35.080Z,3.40
2023-01-07T04:13:35.081Z,3.50
2023-01-07T04:14:35.043Z,2.50
2023-01-07T04:15:35.048Z,1.90
2023-01-07T04:16:35.149Z,3.30
2023-01-07T04:17:35.043Z,2.90
2023-01-07T04:18:34.992Z,2.20
2023-01-07T04:19:35.004Z,4.00
2023-01-07T04:20:34.957Z,2.70
2023-01-07T04:21:35.009Z,2.70
2023-01-07T04:22:34.958Z,1.80
2023-01-07T04:23:34.938Z,2.70
2023-01-07T04:24:34.906Z,2.50
2023-01-07T04:25:34.926Z,3.10
2023-01-07T04:26:34.882Z,2.60
2023-01-07T04:27:34.914Z,2.80
2023-01-07T04:28:34.849Z,2.00
2023-01-07T04:29:34.884Z,3.20
2023-01-07T04:30:34.875Z,2.20
2023-01-07T04:31:34.840Z,2.30
2023-01-07T04:32:34.814Z,2.70
2023-01-07T04:33:34.822Z,3.50
2023-01-07T04:34:34.801Z,2.60
2023-01-07T04:35:34.791Z,2.00
2023-01-07T04:36:34.744Z,2.20
2023-01-07T04:37:34.780Z,1.90
2023-01-07T04:38:34.742Z,1.80
2023-01-07T04:39:34.733Z,1.70
2023-01-07T04:40:34.700Z,1.70
2023-01-07T04:41:34.698Z,3.50
2023-01-07T04:42:34.688Z,1.70
2023-01-07T04:43:34.698Z,2.50
2023-01-07T04:44:34.652Z,3.10
2023-01-07T04:45:34.624Z,2.40
2023-01-07T04:46:34.756Z,2.00
2023-01-07T04:47:34.616Z,2.40
2023-01-07T04:48:34.619Z,2.50
2023-01-07T04:49:34.623Z,3.10
2023-01-07T04:50:34.602Z,3.40
2023-01-07T04:51:34.564Z,2.70
2023-01-07T04:52:34.591Z,3.40
2023-01-07T04:53:34.524Z,2.30
2023-01-07T04:54:34.571Z,1.90
2023-01-07T04:55:34.509Z,1.60
2023-01-07T04:56:34.551Z,1.90
2023-01-07T04:57:34.471Z,2.90
2023-01-07T04:58:34.475Z,2.50
2023-01-07T04:59:34.436Z,1.80
2023-01-07T05:00:34.455Z,1.60
2023-01-07T05:01:34.563Z,2.30
2023-01-07T05:02:34.437Z,1.80
2023-01-07T05:03:34.400Z,2.70
2023-01-07T05:04:34.412Z,2.50
2023-01-07T05:05:34.397Z,3.30
2023-01-07T05:06:34.417Z,2.40
2023-01-07T05:07:34.339Z,2.80
2023-01-07T05:08:34.356Z,1.80
2023-01-07T05:09:34.335Z,1.70
2023-01-07T05:10:34.359Z,2.30
2023-01-07T05:11:34.312Z,1.90
2023-01-07T05:12:34.294Z,2.40
2023-01-07T05:13:34.273Z,2.50
2023-01-07T05:14:34.297Z,2.80
2023-01-07T05:15:34.262Z,2.30
2023-01-07T05:16:34.376Z,2.90
2023-01-07T05:17:34.215Z,2.10
2023-01-07T05:18:34.231Z,3.10
2023-01-07T05:19:34.189Z,2.00
2023-01-07T05:20:34.244Z,22.80
2023-01-07T05:21:34.172Z,47.60
2023-01-07T05:22:34.175Z,51.30
2023-01-07T05:23:34.127Z,20.00
2023-01-07T05:24:34.123Z,18.00
2023-01-07T05:25:34.144Z,17.20
2023-01-07T05:26:34.133Z,14.70
2023-01-07T05:27:34.083Z,12.30
2023-01-07T05:28:34.096Z,12.70
2023-01-07T05:29:34.073Z,12.10
2023-01-07T05:30:34.122Z,8.00
2023-01-07T05:31:34.027Z,6.50
2023-01-07T05:32:34.035Z,7.00
2023-01-07T05:33:34.019Z,8.10
2023-01-07T05:34:34.042Z,6.30
2023-01-07T05:35:33.977Z,6.10
2023-01-07T05:36:33.982Z,5.80
2023-01-07T05:37:33.969Z,4.80
2023-01-07T05:38:34.006Z,3.50
2023-01-07T05:39:33.932Z,4.70
2023-01-07T05:40:33.935Z,4.50
2023-01-07T05:41:33.947Z,4.20
2023-01-07T05:42:33.905Z,5.60
2023-01-07T05:43:33.877Z,6.90
2023-01-07T05:44:33.877Z,8.80
2023-01-07T05:45:33.856Z,7.00
2023-01-07T05:46:33.972Z,10.70
2023-01-07T05:47:33.813Z,9.50
2023-01-07T05:48:33.825Z,9.00
2023-01-07T05:49:33.808Z,9.40
2023-01-07T05:50:33.809Z,8.00
2023-01-07T05:51:33.795Z,6.90
2023-01-07T05:52:33.806Z,7.10
2023-01-07T05:53:33.739Z,7.30
2023-01-07T05:54:33.753Z,8.10
2023-01-07T05:55:33.719Z,8.20
2023-01-07T05:56:33.739Z,7.80
2023-01-07T05:57:33.688Z,7.70
2023-01-07T05:58:33.758Z,6.90
2023-01-07T05:59:33.659Z,8.90
2023-01-07T06:00:33.703Z,8.10
2023-01-07T06:01:33.694Z,7.80
2023-01-07T06:02:33.652Z,7.70
2023-01-07T06:03:33.669Z,8.70
2023-01-07T06:04:33.637Z,11.50
2023-01-07T06:05:33.610Z,9.10
2023-01-07T06:06:33.613Z,8.70
2023-01-07T06:07:33.553Z,9.90
2023-01-07T06:08:33.563Z,5.70
2023-01-07T06:09:33.544Z,4.60
2023-01-07T06:10:33.577Z,4.90
2023-01-07T06:11:33.510Z,6.80
2023-01-07T06:12:33.515Z,4.80
2023-01-07T06:13:33.485Z,6.90
2023-01-07T06:14:33.483Z,5.00
2023-01-07T06:15:33.477Z,5.50
2023-01-07T06:16:33.475Z,4.40
2023-01-07T06:17:33.475Z,4.50
2023-01-07T06:18:33.439Z,2.50
2023-01-07T06:19:33.408Z,2.50
2023-01-07T06:20:33.409Z,3.80
2023-01-07T06:21:33.384Z,3.50
2023-01-07T06:22:33.425Z,3.20
2023-01-07T06:23:33.355Z,3.20
2023-01-07T06:24:33.351Z,4.60
2023-01-07T06:25:33.313Z,3.40
2023-01-07T06:26:33.340Z,2.20
2023-01-07T06:27:33.325Z,4.40
2023-01-07T06:28:33.300Z,3.20
2023-01-07T06:29:33.304Z,2.70
2023-01-07T06:30:33.302Z,3.10
2023-01-07T06:31:33.304Z,5.10
2023-01-07T06:32:33.258Z,3.20
2023-01-07T06:33:33.665Z,4.40
2023-01-07T06:34:33.244Z,1.40
2023-01-07T06:35:33.199Z,2.30
2023-01-07T06:36:33.195Z,3.90
2023-01-07T06:37:33.190Z,2.00
2023-01-07T06:38:33.187Z,3.50
2023-01-07T06:39:33.135Z,4.50
2023-01-07T06:40:33.151Z,4.50
2023-01-07T06:41:33.133Z,2.80
2023-01-07T06:42:33.155Z,3.00
2023-01-07T06:43:33.070Z,2.50
2023-01-07T06:44:33.097Z,4.20
2023-01-07T06:45:33.078Z,3.20
2023-01-07T06:46:33.107Z,3.00
2023-01-07T06:47:33.050Z,2.50
2023-01-07T06:48:33.083Z,1.90
2023-01-07T06:49:33.005Z,1.90
2023-01-07T06:50:33.018Z,2.30
2023-01-07T06:51:32.997Z,3.90
2023-01-07T06:52:33.001Z,3.10
2023-01-07T06:53:32.974Z,2.60
2023-01-07T06:54:32.957Z,2.20
2023-01-07T06:55:32.923Z,2.10
2023-01-07T06:56:32.968Z,1.80
2023-01-07T06:57:32.907Z,2.90
2023-01-07T06:58:32.929Z,1.70
2023-01-07T06:59:32.889Z,1.40
2023-01-07T07:00:32.915Z,2.90
2023-01-07T07:01:33.085Z,1.70
2023-01-07T07:02:32.987Z,1.40
2023-01-07T07:03:32.847Z,1.20
2023-01-07T07:04:32.852Z,0.90
2023-01-07T07:05:32.794Z,1.00
2023-01-07T07:06:33.758Z,2.30
2023-01-07T07:07:32.775Z,2.30
2023-01-07T07:08:32.808Z,1.90
2023-01-07T07:09:32.747Z,1.30
2023-01-07T07:10:32.795Z,1.20
2023-01-07T07:11:32.721Z,0.70
2023-01-07T07:12:32.756Z,0.80
2023-01-07T07:13:32.690Z,1.60
2023-01-07T07:14:32.694Z,3.10
2023-01-07T07:15:32.665Z,1.50
2023-01-07T07:16:32.913Z,2.00
2023-01-07T07:17:32.673Z,2.50
2023-01-07T07:18:32.651Z,1.30
2023-01-07T07:19:32.646Z,1.20
2023-01-07T07:20:32.649Z,1.40
2023-01-07T07:21:32.604Z,1.50
2023-01-07T07:22:32.644Z,0.90
2023-01-07T07:23:32.592Z,1.00
2023-01-07T07:24:32.570Z,1.10
2023-01-07T07:25:32.549Z,2.90
2023-01-07T07:26:32.539Z,1.50
2023-01-07T07:27:32.534Z,0.60
2023-01-07T07:28:32.524Z,2.10
2023-01-07T07:29:32.519Z,2.50
2023-01-07T07:30:47.249Z,1.90
2023-01-07T07:31:32.550Z,2.10
2023-01-07T07:32:32.466Z,1.00
2023-01-07T07:33:32.425Z,2.70
2023-01-07T07:34:34.184Z,2.90
2023-01-07T07:35:32.426Z,1.30
2023-01-07T07:36:32.404Z,1.90
2023-01-07T07:37:32.381Z,1.40
2023-01-07T07:38:32.381Z,25.60
2023-01-07T07:39:32.350Z,9.00
2023-01-07T07:40:32.398Z,5.10
2023-01-07T07:41:32.333Z,2.70
2023-01-07T07:42:32.327Z,2.10
2023-01-07T07:43:32.304Z,1.30
2023-01-07T07:44:32.310Z,1.70
2023-01-07T07:45:32.290Z,2.10
2023-01-07T07:46:32.367Z,2.10
2023-01-07T07:47:32.260Z,2.00
2023-01-07T07:48:32.291Z,0.70
2023-01-07T07:49:32.219Z,1.30
2023-01-07T07:50:32.287Z,0.90
2023-01-07T07:51:32.192Z,1.60
2023-01-07T07:52:32.201Z,1.90
2023-01-07T07:53:32.159Z,1.50
2023-01-07T07:54:32.187Z,1.70
2023-01-07T07:55:32.181Z,2.10
2023-01-07T07:56:32.140Z,1.60
2023-01-07T07:57:32.127Z,2.90
2023-01-07T07:58:32.129Z,1.20
2023-01-07T07:59:32.080Z,2.30
2023-01-07T08:00:32.096Z,1.60
2023-01-07T08:01:32.246Z,2.90
2023-01-07T08:02:32.084Z,3.50
2023-01-07T08:03:32.149Z,4.00
2023-01-07T08:04:32.072Z,3.90
2023-01-07T08:05:32.014Z,3.00
2023-01-07T08:06:32.040Z,5.50
2023-01-07T08:07:33.565Z,4.00
2023-01-07T08:08:32.012Z,2.50
2023-01-07T08:09:31.967Z,2.30
2023-01-07T08:10:31.983Z,1.70
2023-01-07T08:11:31.941Z,1.60
2023-01-07T08:12:31.929Z,1.00
2023-01-07T08:13:31.915Z,1.50
2023-01-07T08:14:31.914Z,1.40
2023-01-07T08:15:31.884Z,1.90
2023-01-07T08:16:31.997Z,1.10
2023-01-07T08:17:31.850Z,1.20
2023-01-07T08:18:31.857Z,3.10
2023-01-07T08:19:31.831Z,1.20
2023-01-07T08:20:31.841Z,1.20
2023-01-07T08:21:31.823Z,1.40
2023-01-07T08:22:31.809Z,3.40
2023-01-07T08:23:31.800Z,1.30
2023-01-07T08:24:31.813Z,3.40
2023-01-07T08:25:31.764Z,3.60
2023-01-07T08:26:31.766Z,4.40
2023-01-07T08:27:31.721Z,6.00
2023-01-07T08:28:31.765Z,3.10
2023-01-07T08:29:31.728Z,1.10
2023-01-07T08:30:31.748Z,2.00
2023-01-07T08:31:31.848Z,1.50
2023-01-07T08:32:31.704Z,1.10
2023-01-07T08:33:31.650Z,1.50
2023-01-07T08:34:31.649Z,1.80
2023-01-07T08:35:31.617Z,2.30
2023-01-07T08:36:31.629Z,1.00
2023-01-07T08:37:31.607Z,1.30
2023-01-07T08:38:31.746Z,1.20
2023-01-07T08:39:31.572Z,1.50
2023-01-07T08:40:31.586Z,1.30
2023-01-07T08:41:31.541Z,1.10
2023-01-07T08:42:31.538Z,1.20
2023-01-07T08:43:31.527Z,1.90
2023-01-07T08:44:31.528Z,1.00
2023-01-07T08:45:31.485Z,1.50
2023-01-07T08:46:31.596Z,1.70
2023-01-07T08:47:31.475Z,2.40
2023-01-07T08:48:31.489Z,3.60
2023-01-07T08:49:31.442Z,2.10
2023-01-07T08:50:31.484Z,0.80
2023-01-07T08:51:31.415Z,1.00
2023-01-07T08:52:31.415Z,1.20
2023-01-07T08:53:31.376Z,1.80
2023-01-07T08:54:31.442Z,1.40
2023-01-07T08:55:31.363Z,1.00
2023-01-07T08:56:31.403Z,1.30
2023-01-07T08:57:31.332Z,2.10
2023-01-07T08:58:31.350Z,1.70
2023-01-07T08:59:31.293Z,1.10
2023-01-07T09:00:31.400Z,3.90
2023-01-07T09:01:31.446Z,2.00
2023-01-07T09:02:31.340Z,1.00
2023-01-07T09:03:31.264Z,2.00
2023-01-07T09:04:31.218Z,1.40
2023-01-07T09:05:31.287Z,3.90
2023-01-07T09:06:31.197Z,1.70
2023-01-07T09:07:31.239Z,2.90
2023-01-07T09:08:31.211Z,1.30
2023-01-07T09:09:31.181Z,1.30
2023-01-07T09:10:31.166Z,2.10
2023-01-07T09:11:31.165Z,1.80
2023-01-07T09:12:31.160Z,1.40
2023-01-07T09:13:31.176Z,1.50
2023-01-07T09:14:31.100Z,2.00
2023-01-07T09:15:31.127Z,2.80
2023-01-07T09:16:31.107Z,2.30
2023-01-07T09:17:31.109Z,1.60
2023-01-07T09:18:31.116Z,2.00
2023-01-07T09:19:31.056Z,1.40
2023-01-07T09:20:31.044Z,3.80
2023-01-07T09:21:31.078Z,1.70
2023-01-07T09:22:31.014Z,2.10
2023-01-07T09:23:31.021Z,1.00
2023-01-07T09:24:30.994Z,2.10
2023-01-07T09:25:30.983Z,1.90
2023-01-07T09:26:30.930Z,1.20
2023-01-07T09:27:30.982Z,1.10
2023-01-07T09:28:30.919Z,1.20
2023-01-07T09:29:31.196Z,1.70
2023-01-07T09:30:30.924Z,1.40
2023-01-07T09:31:30.917Z,1.30
2023-01-07T09:32:30.879Z,3.70
2023-01-07T09:33:30.905Z,1.70
2023-01-07T09:34:30.861Z,1.30
2023-01-07T09:35:30.869Z,1.20
2023-01-07T09:36:30.797Z,2.10
2023-01-07T09:37:30.869Z,1.00
2023-01-07T09:38:30.822Z,1.20
2023-01-07T09:39:30.818Z,2.40
2023-01-07T09:40:30.767Z,1.20
2023-01-07T09:41:30.788Z,1.70
2023-01-07T09:42:33.059Z,2.20
2023-01-07T09:43:59.949Z,1.20
2023-01-07T09:44:30.752Z,2.70
2023-01-07T09:45:30.793Z,1.50
2023-01-07T09:46:30.674Z,2.40
2023-01-07T09:47:30.715Z,2.20
2023-01-07T09:48:30.656Z,1.30
2023-01-07T09:49:30.678Z,1.10
2023-01-07T09:50:30.666Z,1.50
2023-01-07T09:51:30.643Z,1.40
2023-01-07T09:52:30.631Z,1.70
2023-01-07T09:53:30.632Z,1.20
2023-01-07T09:54:30.591Z,1.50
2023-01-07T09:55:30.583Z,1.00
2023-01-07T09:56:30.573Z,1.70
2023-01-07T09:57:30.558Z,1.40
2023-01-07T09:58:30.551Z,1.60
2023-01-07T09:59:30.527Z,1.50
2023-01-07T10:00:30.515Z,1.20
2023-01-07T10:01:30.603Z,1.60
2023-01-07T10:02:30.554Z,1.50
2023-01-07T10:03:30.587Z,2.00
2023-01-07T10:04:30.448Z,2.00
2023-01-07T10:05:30.461Z,1.30
2023-01-07T10:06:42.744Z,1.50
2023-01-07T10:07:30.449Z,1.70
2023-01-07T10:08:32.049Z,2.20
2023-01-07T10:09:30.429Z,1.80
2023-01-07T10:10:30.388Z,1.60
2023-01-07T10:11:30.367Z,1.50
2023-01-07T10:12:30.359Z,3.30
2023-01-07T10:13:30.363Z,1.50
2023-01-07T10:14:30.316Z,1.50
2023-01-07T10:15:30.329Z,1.80
2023-01-07T10:16:30.317Z,1.20
2023-01-07T10:17:30.293Z,1.90
2023-01-07T10:18:30.294Z,1.10
2023-01-07T10:19:30.267Z,1.50
2023-01-07T10:20:30.232Z,2.50
2023-01-07T10:21:30.242Z,1.40
2023-01-07T10:22:30.202Z,2.50
2023-01-07T10:23:30.237Z,1.20
2023-01-07T10:24:30.169Z,3.40
2023-01-07T10:25:30.221Z,1.60
2023-01-07T10:26:30.148Z,2.70
2023-01-07T10:27:30.172Z,2.10
2023-01-07T10:28:30.139Z,2.50
2023-01-07T10:29:30.163Z,1.60
2023-01-07T10:30:30.107Z,1.90
2023-01-07T10:31:30.217Z,1.00
2023-01-07T10:32:30.085Z,2.20
2023-01-07T10:33:30.088Z,1.70
2023-01-07T10:34:30.044Z,1.60
2023-01-07T10:35:30.089Z,1.60
2023-01-07T10:36:30.035Z,2.50
2023-01-07T10:37:30.053Z,2.20
2023-01-07T10:38:29.996Z,2.30
2023-01-07T10:39:29.995Z,1.90
2023-01-07T10:40:29.982Z,3.50
2023-01-07T10:41:30.012Z,1.70
2023-01-07T10:42:29.942Z,2.20
2023-01-07T10:43:29.956Z,3.80
2023-01-07T10:44:29.920Z,1.80
2023-01-07T10:45:29.980Z,2.50
2023-01-07T10:46:29.917Z,1.70
2023-01-07T10:47:29.900Z,2.50
2023-01-07T10:48:29.876Z,2.20
2023-01-07T10:49:29.869Z,2.50
2023-01-07T10:50:29.828Z,2.70
2023-01-07T10:51:29.858Z,2.20
2023-01-07T10:52:29.845Z,2.20
2023-01-07T10:53:29.804Z,2.10
2023-01-07T10:54:29.777Z,2.70
2023-01-07T10:55:29.792Z,3.00
2023-01-07T10:56:29.766Z,2.00
2023-01-07T10:57:29.778Z,2.80
2023-01-07T10:58:29.730Z,2.60
2023-01-07T10:59:29.741Z,3.60
2023-01-07T11:00:29.699Z,2.40
2023-01-07T11:01:29.879Z,3.40
2023-01-07T11:02:29.938Z,3.30
2023-01-07T11:03:29.814Z,2.40
2023-01-07T11:04:29.665Z,2.90
2023-01-07T11:05:29.650Z,2.50
2023-01-07T11:06:29.650Z,2.30
2023-01-07T11:07:29.672Z,2.20
2023-01-07T11:08:29.679Z,2.70
2023-01-07T11:09:29.623Z,2.80
2023-01-07T11:10:29.606Z,3.60
2023-01-07T11:11:29.580Z,2.40
2023-01-07T11:12:29.552Z,3.30
2023-01-07T11:13:29.589Z,1.90
2023-01-07T11:14:29.503Z,1.60
2023-01-07T11:15:29.545Z,1.60
2023-01-07T11:16:29.574Z,1.40
2023-01-07T11:17:29.521Z,2.30
2023-01-07T11:18:29.481Z,1.00
2023-01-07T11:19:29.465Z,1.70
2023-01-07T11:20:29.438Z,1.50
2023-01-07T11:21:43.225Z,3.20
2023-01-07T11:22:29.437Z,2.40
2023-01-07T11:23:29.427Z,4.80
2023-01-07T11:24:29.379Z,1.70
2023-01-07T11:25:29.406Z,3.50
2023-01-07T11:26:29.381Z,1.90
2023-01-07T11:27:29.363Z,3.10
2023-01-07T11:28:29.363Z,2.10
2023-01-07T11:29:29.350Z,2.20
2023-01-07T11:30:29.691Z,1.10
2023-01-07T11:31:29.329Z,2.30
2023-01-07T11:32:29.282Z,1.40
2023-01-07T11:34:01.835Z,1.90
2023-01-07T11:34:29.263Z,1.20
2023-01-07T11:35:29.254Z,2.20
2023-01-07T11:36:29.232Z,1.60
2023-01-07T11:37:29.265Z,2.00
2023-01-07T11:38:29.211Z,1.40
2023-01-07T11:39:29.207Z,1.70
2023-01-07T11:40:29.180Z,1.90
2023-01-07T11:41:29.170Z,1.80
2023-01-07T11:42:29.205Z,1.40
2023-01-07T11:43:29.127Z,2.60
2023-01-07T11:44:29.145Z,1.80
2023-01-07T11:45:29.267Z,1.30
2023-01-07T11:46:29.201Z,1.80
2023-01-07T11:47:29.077Z,2.90
2023-01-07T11:48:29.109Z,1.50
2023-01-07T11:49:29.068Z,1.80
2023-01-07T11:50:29.086Z,2.50
2023-01-07T11:51:29.082Z,2.00
2023-01-07T11:52:29.025Z,1.70
2023-01-07T11:53:29.002Z,1.90
2023-01-07T11:54:29.019Z,2.60
2023-01-07T11:55:29.003Z,3.10
2023-01-07T11:56:29.003Z,1.40
2023-01-07T11:57:28.943Z,4.20
2023-01-07T11:58:30.964Z,2.80
2023-01-07T11:59:28.927Z,2.00
2023-01-07T12:00:28.926Z,1.60
2023-01-07T12:01:28.982Z,1.50
2023-01-07T12:02:28.903Z,1.60
2023-01-07T12:03:28.866Z,2.70
2023-01-07T12:04:28.884Z,1.80
2023-01-07T12:05:28.860Z,3.70
2023-01-07T12:06:28.863Z,5.20
2023-01-07T12:07:28.825Z,2.40
2023-01-07T12:08:28.829Z,2.40
2023-01-07T12:09:28.788Z,2.00
2023-01-07T12:10:28.810Z,1.90
2023-01-07T12:11:28.760Z,1.70
2023-01-07T12:12:28.807Z,2.30
2023-01-07T12:13:28.734Z,2.30
2023-01-07T12:14:28.767Z,1.70
2023-01-07T12:15:28.701Z,2.30
2023-01-07T12:16:28.835Z,1.70
2023-01-07T12:17:28.705Z,2.10
2023-01-07T12:18:28.711Z,2.00
2023-01-07T12:19:28.723Z,1.90
2023-01-07T12:20:28.683Z,1.90
2023-01-07T12:21:28.637Z,3.80
2023-01-07T12:22:28.658Z,1.90
2023-01-07T12:23:28.657Z,3.60
2023-01-07T12:24:28.617Z,3.50
2023-01-07T12:25:28.573Z,2.40
2023-01-07T12:26:28.583Z,1.90
2023-01-07T12:27:28.539Z,2.20
2023-01-07T12:28:28.585Z,2.20
2023-01-07T12:29:28.522Z,2.20
2023-01-07T12:30:28.538Z,2.30
2023-01-07T12:31:28.542Z,2.70
2023-01-07T12:32:28.518Z,2.10
2023-01-07T12:33:28.459Z,1.90
2023-01-07T12:34:28.516Z,2.40
2023-01-07T12:35:28.454Z,3.60
2023-01-07T12:36:28.460Z,3.80
2023-01-07T12:37:28.429Z,2.00
2023-01-07T12:38:28.420Z,2.10
2023-01-07T12:39:28.401Z,3.50
2023-01-07T12:40:28.423Z,2.30
2023-01-07T12:41:28.361Z,4.10
2023-01-07T12:42:28.383Z,2.00
2023-01-07T12:43:28.330Z,2.00
2023-01-07T12:44:28.361Z,2.70
2023-01-07T12:45:28.328Z,2.10
2023-01-07T12:46:28.414Z,2.30
2023-01-07T12:47:31.056Z,2.30
2023-01-07T12:48:28.302Z,2.40
2023-01-07T12:49:28.250Z,2.10
2023-01-07T12:50:28.302Z,3.10
2023-01-07T12:51:28.247Z,2.10
2023-01-07T12:52:28.255Z,1.70
2023-01-07T12:53:28.192Z,1.90
2023-01-07T12:54:28.200Z,1.70
2023-01-07T12:55:28.192Z,2.10
2023-01-07T12:56:28.199Z,3.50
2023-01-07T12:57:28.138Z,3.60
2023-01-07T12:58:28.248Z,3.50
2023-01-07T12:59:46.256Z,2.90
2023-01-07T13:00:28.133Z,2.40
2023-01-07T13:01:28.207Z,2.30
2023-01-07T13:02:28.146Z,3.10
2023-01-07T13:03:28.072Z,2.30
2023-01-07T13:04:28.138Z,2.60
2023-01-07T13:05:28.038Z,2.30
2023-01-07T13:06:28.076Z,3.00
2023-01-07T13:07:28.010Z,2.10
2023-01-07T13:08:28.020Z,1.90
2023-01-07T13:09:27.994Z,4.20
2023-01-07T13:10:28.041Z,5.50
2023-01-07T13:11:27.977Z,8.00
2023-01-07T13:12:41.980Z,4.30
2023-01-07T13:13:28.088Z,4.20
2023-01-07T13:14:27.982Z,4.00
2023-01-07T13:15:27.910Z,2.70
2023-01-07T13:16:28.222Z,2.70
2023-01-07T13:17:27.924Z,2.20